sensor_id;sensor_type;location;lat;lon;timestamp;P1;durP1;ratioP1;P2;durP2;ratioP2
66371;SDS011;53168;51.146;17.120;2023-05-16T02:31:06;16.54;;;16.54;;
66371;SDS011;53168;51.146;17.120;2023-05-16T02:33:40;14.14;;;14.14;;
66371;SDS011;53168;51.146;17.120;2023-05-16T02:36:16;13.58;;;13.58;;
66371;SDS011;53168;51.146;17.120;2023-05-16T02:38:50;16.32;;;16.32;;
66371;SDS011;53168;51.146;17.120;2023-05-16T02:41:24;15.92;;;15.89;;
66371;SDS011;53168;51.146;17.120;2023-05-16T03:23:14;16.24;;;16.24;;
66371;SDS011;53168;51.146;17.120;2023-05-16T03:26:08;15.89;;;15.89;;
66371;SDS011;53168;51.146;17.120;2023-05-16T03:28:50;13.49;;;13.49;;
66371;SDS011;53168;51.146;17.120;2023-05-16T03:31:27;12.84;;;12.84;;
66371;SDS011;53168;51.146;17.120;2023-05-16T03:34:06;15.44;;;15.44;;
66371;SDS011;53168;51.146;17.120;2023-05-16T03:36:59;16.48;;;16.48;;
66371;SDS011;53168;51.146;17.120;2023-05-16T03:39:35;13.47;;;13.47;;
66371;SDS011;53168;51.146;17.120;2023-05-16T03:42:10;11.77;;;11.77;;
66371;SDS011;53168;51.146;17.120;2023-05-16T03:44:46;15.20;;;15.20;;
66371;SDS011;53168;51.146;17.120;2023-05-16T03:47:37;16.15;;;16.14;;
66371;SDS011;53168;51.146;17.120;2023-05-16T03:50:24;15.87;;;15.69;;
66371;SDS011;53168;51.146;17.120;2023-05-16T04:30:36;14.43;;;14.43;;
66371;SDS011;53168;51.146;17.120;2023-05-16T04:45:09;15.53;;;15.46;;
66371;SDS011;53168;51.146;17.120;2023-05-16T04:53:07;12.85;;;12.84;;
66371;SDS011;53168;51.146;17.120;2023-05-16T04:55:47;12.75;;;12.75;;
66371;SDS011;53168;51.146;17.120;2023-05-16T04:58:29;15.90;;;15.90;;
66371;SDS011;53168;51.146;17.120;2023-05-16T05:18:39;12.05;;;12.05;;
66371;SDS011;53168;51.146;17.120;2023-05-16T05:22:14;15.36;;;15.36;;
66371;SDS011;53168;51.146;17.120;2023-05-16T05:47:42;14.06;;;14.06;;
66371;SDS011;53168;51.146;17.120;2023-05-16T06:44:51;14.17;;;14.17;;
66371;SDS011;53168;51.146;17.120;2023-05-16T07:02:26;13.45;;;13.45;;
66371;SDS011;53168;51.146;17.120;2023-05-16T07:50:37;13.20;;;13.20;;
66371;SDS011;53168;51.146;17.120;2023-05-16T08:04:16;13.73;;;13.72;;
66371;SDS011;53168;51.146;17.120;2023-05-16T08:07:26;12.93;;;12.66;;
66371;SDS011;53168;51.146;17.120;2023-05-16T08:10:09;11.90;;;11.90;;
66371;SDS011;53168;51.146;17.120;2023-05-16T08:12:43;12.11;;;12.04;;
66371;SDS011;53168;51.146;17.120;2023-05-16T08:19:18;13.51;;;13.49;;
66371;SDS011;53168;51.146;17.120;2023-05-16T09:48:14;10.76;;;10.76;;
66371;SDS011;53168;51.146;17.120;2023-05-16T09:50:53;10.71;;;10.71;;
66371;SDS011;53168;51.146;17.120;2023-05-16T09:53:35;11.38;;;11.38;;
66371;SDS011;53168;51.146;17.120;2023-05-16T10:00:30;10.56;;;10.56;;
66371;SDS011;53168;51.146;17.120;2023-05-16T10:50:56;10.92;;;10.92;;
66371;SDS011;53168;51.146;17.120;2023-05-16T11:14:50;13.63;;;13.63;;
66371;SDS011;53168;51.146;17.120;2023-05-16T11:28:28;14.48;;;14.48;;
66371;SDS011;53168;51.146;17.120;2023-05-16T11:31:02;14.32;;;14.32;;
66371;SDS011;53168;51.146;17.120;2023-05-16T11:33:44;14.97;;;14.74;;
66371;SDS011;53168;51.146;17.120;2023-05-16T11:36:21;15.20;;;15.01;;
66371;SDS011;53168;51.146;17.120;2023-05-16T11:39:05;15.16;;;15.16;;
66371;SDS011;53168;51.146;17.120;2023-05-16T11:41:41;15.51;;;15.18;;
66371;SDS011;53168;51.146;17.120;2023-05-16T11:44:21;15.74;;;15.73;;
66371;SDS011;53168;51.146;17.120;2023-05-16T11:49:57;14.97;;;14.97;;
66371;SDS011;53168;51.146;17.120;2023-05-16T11:52:35;17.11;;;17.08;;
66371;SDS011;53168;51.146;17.120;2023-05-16T11:55:26;15.50;;;15.47;;
66371;SDS011;53168;51.146;17.120;2023-05-16T11:58:11;15.79;;;15.79;;
66371;SDS011;53168;51.146;17.120;2023-05-16T12:00:47;15.43;;;15.43;;
66371;SDS011;53168;51.146;17.120;2023-05-16T13:04:03;17.54;;;17.36;;
66371;SDS011;53168;51.146;17.120;2023-05-16T13:07:01;16.46;;;16.42;;
66371;SDS011;53168;51.146;17.120;2023-05-16T13:09:37;17.71;;;17.65;;
66371;SDS011;53168;51.146;17.120;2023-05-16T13:12:29;16.05;;;16.01;;
66371;SDS011;53168;51.146;17.120;2023-05-16T13:29:57;16.77;;;16.35;;
66371;SDS011;53168;51.146;17.120;2023-05-16T13:32:35;18.41;;;18.36;;
66371;SDS011;53168;51.146;17.120;2023-05-16T13:35:13;16.17;;;16.04;;
66371;SDS011;53168;51.146;17.120;2023-05-16T13:37:49;16.44;;;16.18;;
66371;SDS011;53168;51.146;17.120;2023-05-16T13:40:25;15.72;;;15.49;;
66371;SDS011;53168;51.146;17.120;2023-05-16T13:43:07;18.57;;;18.34;;
66371;SDS011;53168;51.146;17.120;2023-05-16T13:46:06;17.03;;;16.90;;
66371;SDS011;53168;51.146;17.120;2023-05-16T13:51:55;18.48;;;18.24;;
66371;SDS011;53168;51.146;17.120;2023-05-16T13:54:37;19.20;;;18.79;;
66371;SDS011;53168;51.146;17.120;2023-05-16T13:58:11;15.06;;;14.95;;
66371;SDS011;53168;51.146;17.120;2023-05-16T14:00:46;18.00;;;17.94;;
66371;SDS011;53168;51.146;17.120;2023-05-16T14:03:24;19.11;;;19.02;;
66371;SDS011;53168;51.146;17.120;2023-05-16T14:06:10;16.91;;;16.71;;
66371;SDS011;53168;51.146;17.120;2023-05-16T14:08:44;19.95;;;19.67;;
66371;SDS011;53168;51.146;17.120;2023-05-16T14:11:18;19.68;;;19.36;;
66371;SDS011;53168;51.146;17.120;2023-05-16T14:14:03;19.41;;;19.24;;
66371;SDS011;53168;51.146;17.120;2023-05-16T14:16:38;19.80;;;19.44;;
66371;SDS011;53168;51.146;17.120;2023-05-16T14:19:15;18.92;;;18.68;;
66371;SDS011;53168;51.146;17.120;2023-05-16T14:22:11;20.62;;;20.36;;
66371;SDS011;53168;51.146;17.120;2023-05-16T14:28:12;19.85;;;19.35;;
66371;SDS011;53168;51.146;17.120;2023-05-16T14:30:47;17.31;;;17.11;;
66371;SDS011;53168;51.146;17.120;2023-05-16T14:33:22;19.73;;;19.24;;
66371;SDS011;53168;51.146;17.120;2023-05-16T14:35:56;18.50;;;18.18;;
66371;SDS011;53168;51.146;17.120;2023-05-16T14:38:56;19.42;;;18.96;;
66371;SDS011;53168;51.146;17.120;2023-05-16T14:41:51;20.67;;;20.01;;
66371;SDS011;53168;51.146;17.120;2023-05-16T14:46:49;24.72;;;22.92;;
66371;SDS011;53168;51.146;17.120;2023-05-16T14:49:31;24.77;;;23.41;;
66371;SDS011;53168;51.146;17.120;2023-05-16T15:30:36;20.29;;;19.56;;
66371;SDS011;53168;51.146;17.120;2023-05-16T15:33:31;19.42;;;18.56;;
66371;SDS011;53168;51.146;17.120;2023-05-16T15:36:21;17.15;;;16.47;;
66371;SDS011;53168;51.146;17.120;2023-05-16T15:38:56;17.98;;;17.38;;
66371;SDS011;53168;51.146;17.120;2023-05-16T15:41:32;18.09;;;17.41;;
66371;SDS011;53168;51.146;17.120;2023-05-16T15:47:33;18.23;;;17.76;;
66371;SDS011;53168;51.146;17.120;2023-05-16T15:53:37;17.84;;;17.17;;
66371;SDS011;53168;51.146;17.120;2023-05-16T15:56:47;16.17;;;15.73;;
66371;SDS011;53168;51.146;17.120;2023-05-16T17:14:49;19.94;;;19.52;;
66371;SDS011;53168;51.146;17.120;2023-05-16T17:17:19;17.43;;;17.11;;
66371;SDS011;53168;51.146;17.120;2023-05-16T17:26:50;15.86;;;15.66;;
66371;SDS011;53168;51.146;17.120;2023-05-16T17:30:42;17.29;;;17.08;;
66371;SDS011;53168;51.146;17.120;2023-05-16T17:33:45;21.53;;;20.87;;
66371;SDS011;53168;51.146;17.120;2023-05-16T17:36:34;17.11;;;16.71;;
66371;SDS011;53168;51.146;17.120;2023-05-16T17:39:24;14.00;;;13.85;;
66371;SDS011;53168;51.146;17.120;2023-05-16T17:43:16;20.07;;;19.50;;
66371;SDS011;53168;51.146;17.120;2023-05-16T17:46:01;18.65;;;18.21;;
66371;SDS011;53168;51.146;17.120;2023-05-16T17:48:48;16.40;;;16.17;;
66371;SDS011;53168;51.146;17.120;2023-05-16T17:52:11;17.92;;;17.70;;
66371;SDS011;53168;51.146;17.120;2023-05-16T17:58:12;16.43;;;15.97;;
66371;SDS011;53168;51.146;17.120;2023-05-16T18:05:25;19.49;;;18.91;;
66371;SDS011;53168;51.146;17.120;2023-05-16T18:08:41;16.95;;;16.60;;
66371;SDS011;53168;51.146;17.120;2023-05-16T18:15:54;21.10;;;20.89;;
66371;SDS011;53168;51.146;17.120;2023-05-16T18:21:52;22.29;;;21.66;;
66371;SDS011;53168;51.146;17.120;2023-05-16T18:24:42;18.54;;;18.07;;
66371;SDS011;53168;51.146;17.120;2023-05-16T18:48:39;20.81;;;20.01;;
66371;SDS011;53168;51.146;17.120;2023-05-16T18:51:23;20.63;;;19.86;;
66371;SDS011;53168;51.146;17.120;2023-05-16T18:54:30;15.72;;;15.41;;
66371;SDS011;53168;51.146;17.120;2023-05-16T18:57:09;18.31;;;17.99;;
66371;SDS011;53168;51.146;17.120;2023-05-16T19:08:18;21.21;;;20.51;;
66371;SDS011;53168;51.146;17.120;2023-05-16T19:14:46;19.74;;;19.16;;
66371;SDS011;53168;51.146;17.120;2023-05-16T19:18:23;22.76;;;21.98;;
66371;SDS011;53168;51.146;17.120;2023-05-16T19:20:54;17.33;;;16.92;;
66371;SDS011;53168;51.146;17.120;2023-05-16T19:23:39;18.09;;;17.53;;
66371;SDS011;53168;51.146;17.120;2023-05-16T19:26:16;22.23;;;21.16;;
66371;SDS011;53168;51.146;17.120;2023-05-16T19:28:52;20.03;;;19.48;;
66371;SDS011;53168;51.146;17.120;2023-05-16T19:38:54;19.11;;;18.16;;
66371;SDS011;53168;51.146;17.120;2023-05-16T19:41:26;19.57;;;19.07;;
66371;SDS011;53168;51.146;17.120;2023-05-16T19:43:58;23.90;;;23.06;;
66371;SDS011;53168;51.146;17.120;2023-05-16T19:47:04;20.07;;;19.20;;
66371;SDS011;53168;51.146;17.120;2023-05-16T19:50:10;19.90;;;19.48;;
66371;SDS011;53168;51.146;17.120;2023-05-16T19:52:42;21.14;;;20.35;;
66371;SDS011;53168;51.146;17.120;2023-05-16T19:55:24;21.78;;;21.00;;
66371;SDS011;53168;51.146;17.120;2023-05-16T19:58:03;17.24;;;16.81;;
66371;SDS011;53168;51.146;17.120;2023-05-16T20:00:34;18.44;;;17.93;;
66371;SDS011;53168;51.146;17.120;2023-05-16T20:03:04;22.39;;;21.28;;
66371;SDS011;53168;51.146;17.120;2023-05-16T20:05:35;17.95;;;17.24;;
66371;SDS011;53168;51.146;17.120;2023-05-16T20:47:16;14.35;;;14.08;;
66371;SDS011;53168;51.146;17.120;2023-05-16T20:49:47;16.54;;;16.21;;
66371;SDS011;53168;51.146;17.120;2023-05-16T20:52:19;19.12;;;18.49;;
66371;SDS011;53168;51.146;17.120;2023-05-16T20:54:50;15.53;;;15.30;;
66371;SDS011;53168;51.146;17.120;2023-05-16T21:44:29;18.14;;;17.87;;
66371;SDS011;53168;51.146;17.120;2023-05-16T21:48:30;15.15;;;15.11;;
66371;SDS011;53168;51.146;17.120;2023-05-16T21:51:30;17.93;;;17.71;;
66371;SDS011;53168;51.146;17.120;2023-05-16T21:54:09;17.15;;;16.73;;
66371;SDS011;53168;51.146;17.120;2023-05-16T22:04:22;17.40;;;16.89;;
66371;SDS011;53168;51.146;17.120;2023-05-16T22:07:10;14.65;;;14.60;;
66371;SDS011;53168;51.146;17.120;2023-05-16T22:10:22;15.56;;;15.40;;
66371;SDS011;53168;51.146;17.120;2023-05-16T22:13:01;18.17;;;17.78;;
66371;SDS011;53168;51.146;17.120;2023-05-16T22:15:40;16.26;;;15.98;;
66371;SDS011;53168;51.146;17.120;2023-05-16T22:18:34;13.62;;;13.54;;
66371;SDS011;53168;51.146;17.120;2023-05-16T22:21:08;16.91;;;16.68;;
66371;SDS011;53168;51.146;17.120;2023-05-16T22:23:53;17.37;;;17.06;;
66371;SDS011;53168;51.146;17.120;2023-05-16T22:26:58;15.44;;;15.24;;
66371;SDS011;53168;51.146;17.120;2023-05-16T22:29:35;13.31;;;13.17;;
66371;SDS011;53168;51.146;17.120;2023-05-16T22:32:43;18.10;;;17.68;;
66371;SDS011;53168;51.146;17.120;2023-05-16T22:38:26;13.34;;;13.16;;
66371;SDS011;53168;51.146;17.120;2023-05-16T22:41:42;18.17;;;17.87;;
66371;SDS011;53168;51.146;17.120;2023-05-16T22:44:40;20.14;;;19.53;;
66371;SDS011;53168;51.146;17.120;2023-05-16T22:47:42;13.89;;;13.79;;
66371;SDS011;53168;51.146;17.120;2023-05-16T22:51:10;14.45;;;14.30;;
66371;SDS011;53168;51.146;17.120;2023-05-16T22:53:58;18.17;;;17.93;;
66371;SDS011;53168;51.146;17.120;2023-05-16T23:00:45;14.38;;;14.30;;
66371;SDS011;53168;51.146;17.120;2023-05-16T23:04:53;17.72;;;17.41;;
66371;SDS011;53168;51.146;17.120;2023-05-16T23:07:43;13.51;;;13.32;;
66371;SDS011;53168;51.146;17.120;2023-05-16T23:10:28;15.76;;;15.53;;
66371;SDS011;53168;51.146;17.120;2023-05-16T23:13:07;16.76;;;16.49;;
66371;SDS011;53168;51.146;17.120;2023-05-16T23:16:00;15.21;;;15.07;;
66371;SDS011;53168;51.146;17.120;2023-05-16T23:18:46;12.20;;;12.08;;
66371;SDS011;53168;51.146;17.120;2023-05-16T23:21:25;15.46;;;15.23;;
66371;SDS011;53168;51.146;17.120;2023-05-16T23:24:00;16.22;;;16.02;;
66371;SDS011;53168;51.146;17.120;2023-05-16T23:26:39;13.92;;;13.77;;
66371;SDS011;53168;51.146;17.120;2023-05-16T23:29:19;13.04;;;12.86;;
66371;SDS011;53168;51.146;17.120;2023-05-16T23:31:55;16.12;;;15.78;;
66371;SDS011;53168;51.146;17.120;2023-05-16T23:34:35;16.73;;;16.34;;
66371;SDS011;53168;51.146;17.120;2023-05-16T23:37:11;13.04;;;13.00;;
66371;SDS011;53168;51.146;17.120;2023-05-16T23:39:50;13.78;;;13.70;;
66371;SDS011;53168;51.146;17.120;2023-05-16T23:42:27;17.74;;;17.50;;
66371;SDS011;53168;51.146;17.120;2023-05-16T23:45:08;15.77;;;15.55;;
